Ariane — D5FO5 — position and weather

sailwx.info

Track history (hours):
 
Tides and Currents Weather Stations Pressure Air Temp Water Temp Dewpoint Dewpoint Depression Visibility Wind Speed Wind Dir Waves Ship Positions

Ariane

Last reported at 2017-Oct-13 12:26 UTC. Time now 2017-Oct-17 17:11 UTC.
Position N 29°60' W 090°27'.

Length 227 m; draft 8.3 m.

Type: Ship (hazmat cat B). MMSI: 626092552.

Date/timePositionNaut miles runAvg speedWind from/ knotsBaromVisibWave heightAir tempDewpointWater temp
2017-Oct-13 12:26N 29°60' W 090°27'  
2017-Oct-06 11:10N 25°30' W 079°33'1 8.4
2017-Oct-06 11:00N 25°31' W 079°33'4 8.5
2017-Oct-06 10:30N 25°35' W 079°33'4 8.6
2017-Oct-06 10:00N 25°39' W 079°32'5 8.8
2017-Oct-06 09:29N 25°44' W 079°31'4 9.0
2017-Oct-06 09:00N 25°48' W 079°30'5 9.0
2017-Oct-06 08:30N 25°52' W 079°29'5 9.1
2017-Oct-06 08:00N 25°57' W 079°27'5 9.5
2017-Oct-06 07:30N 26°01' W 079°24'7 9.8
2017-Oct-06 06:49N 26°07' W 079°20'310.0
2017-Oct-06 06:29N 26°09' W 079°18'  
Track history (hours):
 
Tides and Currents Weather Stations Pressure Air Temp Water Temp Dewpoint Dewpoint Depression Visibility Wind Speed Wind Dir Waves Ship Positions

Ariane

Last reported at 2017-Oct-13 12:26 UTC. Time now 2017-Oct-17 17:11 UTC.
Position N 29°60' W 090°27'.

Length 227 m; draft 8.3 m.

Type: Ship (hazmat cat B). MMSI: 626092552.

Date/timePositionNaut miles runAvg speedWind from/ knotsBaromVisibWave heightAir tempDewpointWater temp
2017-Oct-13 12:26N 29°60' W 090°27'  
2017-Oct-06 11:10N 25°30' W 079°33'1 8.4
2017-Oct-06 11:00N 25°31' W 079°33'4 8.5
2017-Oct-06 10:30N 25°35' W 079°33'4 8.6
2017-Oct-06 10:00N 25°39' W 079°32'5 8.8
2017-Oct-06 09:29N 25°44' W 079°31'4 9.0
2017-Oct-06 09:00N 25°48' W 079°30'5 9.0
2017-Oct-06 08:30N 25°52' W 079°29'5 9.1
2017-Oct-06 08:00N 25°57' W 079°27'5 9.5
2017-Oct-06 07:30N 26°01' W 079°24'7 9.8
2017-Oct-06 06:49N 26°07' W 079°20'310.0
2017-Oct-06 06:29N 26°09' W 079°18'  

Dump ship's entire track history